Time;durP1;ratioP1;P1;durP2;ratioP2;P2;SDS_P1;SDS_P2;PMS_P1;PMS_P2;Temp;Humidity;BMP_temperature;BMP_pressure;BME280_temperature;BME280_humidity;BME280_pressure;Samples;Min_cycle;Max_cycle;Signal;HPM_P1;HPM_P2
2021/06/07 00:00:32;;;;;;;5.43;4.93;;;20.80;65.10;;;;;;1480624;40;20024;-60
2021/06/07 00:01:56;;;;;;;6.75;6.05;;;20.80;65.10;;;;;;1481920;40;20125;-60
2021/06/07 00:03:17;;;;;;;6.05;5.50;;;20.80;65.10;;;;;;1480426;40;20032;-60
2021/06/07 00:04:38;;;;;;;6.40;5.85;;;20.80;65.20;;;;;;1480109;40;20583;-61
2021/06/07 00:05:59;;;;;;;6.40;5.80;;;20.80;65.30;;;;;;1479851;40;20039;-60
2021/06/07 00:07:20;;;;;;;5.75;5.22;;;20.80;65.20;;;;;;1482644;40;20024;-61
2021/06/07 00:08:42;;;;;;;5.82;5.25;;;20.80;65.30;;;;;;1480513;40;20088;-60
2021/06/07 00:10:08;;;;;;;6.65;5.35;;;20.80;65.30;;;;;;1480334;40;20049;-60
2021/06/07 00:11:29;;;;;;;5.93;5.32;;;20.80;65.40;;;;;;1479164;40;20033;-60
2021/06/07 00:12:50;;;;;;;7.07;6.15;;;20.80;65.30;;;;;;1481092;40;20021;-60
2021/06/07 00:14:13;;;;;;;7.18;5.82;;;20.80;65.30;;;;;;1481676;40;20350;-61
2021/06/07 00:15:34;;;;;;;6.97;5.80;;;20.70;65.20;;;;;;1480695;40;20059;-60
2021/06/07 00:16:55;;;;;;;6.95;5.28;;;20.80;65.30;;;;;;1481041;40;20039;-61
2021/06/07 00:18:17;;;;;;;6.65;5.55;;;20.70;65.20;;;;;;1480114;40;20066;-60
2021/06/07 00:19:40;;;;;;;6.93;6.22;;;20.70;65.20;;;;;;1478794;40;20082;-60
2021/06/07 00:21:04;;;;;;;6.47;5.65;;;20.70;65.20;;;;;;1479822;40;20340;-60
2021/06/07 00:22:25;;;;;;;6.25;5.65;;;20.70;65.20;;;;;;1480820;40;20044;-61
2021/06/07 00:23:47;;;;;;;6.63;6.03;;;20.70;65.10;;;;;;1480763;40;20065;-60
2021/06/07 00:25:09;;;;;;;7.32;6.20;;;20.70;65.20;;;;;;1480269;40;20130;-60
2021/06/07 00:26:30;;;;;;;6.25;5.68;;;20.70;65.10;;;;;;1480914;40;20028;-60
2021/06/07 00:27:51;;;;;;;7.50;6.38;;;20.70;65.10;;;;;;1482120;40;20021;-61
2021/06/07 00:29:13;;;;;;;6.88;6.20;;;20.70;65.10;;;;;;1481071;40;20029;-60
2021/06/07 00:30:34;;;;;;;6.88;5.80;;;20.70;65.10;;;;;;1480175;40;20029;-59
2021/06/07 00:31:55;;;;;;;6.90;6.28;;;20.70;65.10;;;;;;1479642;40;20035;-60
2021/06/07 00:33:16;;;;;;;7.57;6.35;;;20.60;65.00;;;;;;1474535;40;20026;-59
2021/06/07 00:34:37;;;;;;;7.60;6.50;;;20.70;65.10;;;;;;1477801;40;20304;-59
2021/06/07 00:35:59;;;;;;;7.00;6.30;;;20.60;65.00;;;;;;1481133;40;20033;-60
2021/06/07 00:37:19;;;;;;;6.47;5.55;;;20.60;65.10;;;;;;1477563;40;20061;-59
2021/06/07 00:38:40;;;;;;;7.10;6.40;;;20.60;65.10;;;;;;1478730;40;20025;-59
2021/06/07 00:40:02;;;;;;;7.20;5.85;;;20.60;65.20;;;;;;1480108;40;20029;-60
2021/06/07 00:41:24;;;;;;;7.22;6.53;;;20.60;65.20;;;;;;1481191;40;20024;-60
2021/06/07 00:42:45;;;;;;;6.03;5.53;;;20.60;65.40;;;;;;1479711;40;20266;-60
2021/06/07 00:44:12;;;;;;;7.00;5.97;;;20.60;66.20;;;;;;1482711;40;20416;-59
2021/06/07 00:45:36;;;;;;;8.90;6.13;;;20.60;65.50;;;;;;1480516;40;20359;-60
2021/06/07 00:46:57;;;;;;;6.82;6.13;;;20.60;65.50;;;;;;1479319;40;20344;-60
2021/06/07 00:48:18;;;;;;;6.88;6.05;;;20.60;65.50;;;;;;1479400;40;20079;-60
2021/06/07 00:49:39;;;;;;;6.97;6.32;;;20.50;65.40;;;;;;1481844;40;20045;-60
2021/06/07 00:51:10;;;;;;;10.23;7.15;;;20.50;65.40;;;;;;1481693;40;20269;-60
2021/06/07 00:52:31;;;;;;;7.82;7.03;;;20.50;65.40;;;;;;1482170;40;20028;-61
2021/06/07 00:53:52;;;;;;;8.30;7.50;;;20.50;65.30;;;;;;1475325;40;20072;-60
2021/06/07 00:55:13;;;;;;;8.07;7.28;;;20.50;65.30;;;;;;1476840;40;20039;-60
2021/06/07 00:56:34;;;;;;;8.52;7.15;;;20.50;65.30;;;;;;1481285;40;20398;-60
2021/06/07 00:57:56;;;;;;;8.00;6.72;;;20.50;65.30;;;;;;1479894;40;20043;-60
2021/06/07 00:59:17;;;;;;;7.43;6.70;;;20.50;65.30;;;;;;1481616;40;20043;-59
2021/06/07 01:00:39;;;;;;;8.05;6.70;;;20.40;65.30;;;;;;1479869;40;20033;-60
2021/06/07 01:02:00;;;;;;;7.47;6.70;;;20.50;65.50;;;;;;1481200;40;20025;-60
2021/06/07 01:03:23;;;;;;;8.13;6.70;;;20.40;65.40;;;;;;1479298;40;20051;-60
2021/06/07 01:04:44;;;;;;;8.10;6.65;;;20.40;65.50;;;;;;1482049;40;20150;-60
2021/06/07 01:06:06;;;;;;;7.38;6.70;;;20.40;65.50;;;;;;1481087;40;20044;-60
2021/06/07 01:07:27;;;;;;;7.20;6.50;;;20.40;65.60;;;;;;1480691;40;20037;-60
2021/06/07 01:08:48;;;;;;;8.50;7.20;;;20.40;65.60;;;;;;1478438;40;20037;-60
2021/06/07 01:10:10;;;;;;;7.07;6.38;;;20.30;65.60;;;;;;1481888;40;20054;-60
2021/06/07 01:11:32;;;;;;;7.50;6.80;;;20.30;65.70;;;;;;1479416;40;20044;-60
2021/06/07 01:12:54;;;;;;;11.75;7.38;;;20.30;65.80;;;;;;1482267;40;20281;-60
2021/06/07 01:14:16;;;;;;;7.57;6.88;;;20.30;66.00;;;;;;1480534;40;20092;-60
2021/06/07 01:15:36;;;;;;;8.68;7.28;;;20.30;66.10;;;;;;1481533;40;20053;-60
2021/06/07 01:16:57;;;;;;;7.72;6.95;;;20.30;66.00;;;;;;1482428;40;20037;-60
2021/06/07 01:18:20;;;;;;;8.02;7.32;;;20.30;66.10;;;;;;1481315;40;20049;-60
2021/06/07 01:19:41;;;;;;;7.45;6.65;;;20.30;66.10;;;;;;1481064;40;20033;-60
2021/06/07 01:21:08;;;;;;;7.88;7.10;;;20.30;66.10;;;;;;1479873;40;20037;-60
2021/06/07 01:22:29;;;;;;;7.10;6.43;;;20.20;66.20;;;;;;1479865;40;20036;-60
2021/06/07 01:23:52;;;;;;;8.38;6.95;;;20.20;66.10;;;;;;1481403;40;20114;-61
2021/06/07 01:25:20;;;;;;;9.15;6.80;;;20.20;66.10;;;;;;1479419;40;20037;-60
2021/06/07 01:26:41;;;;;;;7.47;6.65;;;20.20;66.30;;;;;;1480816;40;20033;-60
2021/06/07 01:28:03;;;;;;;8.25;7.45;;;20.20;66.20;;;;;;1481111;40;20065;-60
2021/06/07 01:29:24;;;;;;;8.30;7.40;;;20.20;66.10;;;;;;1482014;40;20033;-61
2021/06/07 01:30:49;;;;;;;7.97;7.25;;;20.20;66.10;;;;;;1480551;40;20036;-60
2021/06/07 01:32:10;;;;;;;7.75;6.70;;;20.20;66.10;;;;;;1480254;40;20094;-60
2021/06/07 01:33:35;;;;;;;7.93;6.95;;;20.20;66.10;;;;;;1479262;40;20350;-61
2021/06/07 01:34:56;;;;;;;7.32;6.68;;;20.20;66.00;;;;;;1482311;40;20049;-61
2021/06/07 01:36:17;;;;;;;8.18;7.25;;;20.10;66.70;;;;;;1481185;40;20091;-60
2021/06/07 01:37:40;;;;;;;9.00;6.90;;;20.10;66.00;;;;;;1479889;40;20036;-60
2021/06/07 01:39:01;;;;;;;10.23;7.47;;;20.10;65.90;;;;;;1480918;40;20621;-61
2021/06/07 01:40:29;;;;;;;8.30;7.43;;;20.10;66.00;;;;;;1481782;40;20023;-60
2021/06/07 01:41:50;;;;;;;8.38;7.55;;;20.10;66.20;;;;;;1480943;40;20611;-60
2021/06/07 01:43:11;;;;;;;7.68;6.97;;;20.10;66.00;;;;;;1481577;40;20369;-61
2021/06/07 01:44:32;;;;;;;8.85;7.93;;;20.10;66.10;;;;;;1480350;40;20037;-60
2021/06/07 01:45:53;;;;;;;10.63;7.85;;;20.00;66.20;;;;;;1479322;40;20282;-60
2021/06/07 01:47:14;;;;;;;7.90;7.20;;;20.00;66.20;;;;;;1475971;40;20033;-60
2021/06/07 01:48:36;;;;;;;8.43;7.53;;;20.00;66.30;;;;;;1477486;40;20077;-61
2021/06/07 01:49:57;;;;;;;9.73;7.20;;;20.00;66.30;;;;;;1480507;40;20053;-60
2021/06/07 01:51:18;;;;;;;8.02;7.22;;;20.00;66.30;;;;;;1481939;40;20068;-61
2021/06/07 01:52:46;;;;;;;8.93;8.02;;;20.00;66.30;;;;;;1479076;40;20063;-60
2021/06/07 01:54:07;;;;;;;8.02;7.22;;;19.90;66.20;;;;;;1481644;40;20063;-60
2021/06/07 01:55:35;;;;;;;8.10;7.30;;;19.90;66.20;;;;;;1479946;40;20061;-60
2021/06/07 01:56:56;;;;;;;9.05;8.02;;;19.90;66.30;;;;;;1480069;40;20033;-60
2021/06/07 01:58:19;;;;;;;9.50;8.02;;;19.90;66.30;;;;;;1479780;40;20025;-60
2021/06/07 01:59:40;;;;;;;8.25;7.07;;;19.90;66.30;;;;;;1480483;40;20032;-60
2021/06/07 02:01:08;;;;;;;9.45;7.75;;;19.90;66.30;;;;;;1474827;40;20414;-60
2021/06/07 02:02:28;;;;;;;9.15;8.18;;;19.90;66.50;;;;;;1477993;40;20397;-60
2021/06/07 02:03:50;;;;;;;8.57;7.72;;;19.90;66.50;;;;;;1480407;40;20070;-60
2021/06/07 02:05:21;;;;;;;9.43;8.00;;;19.90;66.60;;;;;;1481565;40;20328;-60
2021/06/07 02:06:42;;;;;;;9.27;7.53;;;19.90;66.70;;;;;;1482188;40;20797;-60
2021/06/07 02:08:09;;;;;;;8.77;7.88;;;19.90;66.60;;;;;;1480395;40;20034;-60
2021/06/07 02:09:30;;;;;;;9.38;7.72;;;19.90;67.50;;;;;;1481952;40;20117;-60
2021/06/07 02:10:54;;;;;;;10.25;7.20;;;19.80;66.70;;;;;;1480519;40;20032;-61
2021/06/07 02:12:15;;;;;;;10.52;7.75;;;19.80;66.70;;;;;;1479848;40;20309;-60
2021/06/07 02:13:36;;;;;;;9.20;7.28;;;19.80;66.70;;;;;;1480217;40;20022;-60
2021/06/07 02:14:58;;;;;;;8.45;7.65;;;19.80;66.90;;;;;;1479763;40;20063;-61
2021/06/07 02:16:24;;;;;;;10.65;7.60;;;19.90;66.90;;;;;;1480262;40;20456;-61
2021/06/07 02:17:45;;;;;;;8.00;6.70;;;19.80;66.90;;;;;;1476668;40;20036;-60
2021/06/07 02:19:08;;;;;;;9.50;7.97;;;19.80;66.90;;;;;;1480520;40;20386;-61
2021/06/07 02:20:29;;;;;;;8.02;7.22;;;19.80;66.90;;;;;;1480329;40;20041;-59
2021/06/07 02:21:50;;;;;;;8.43;7.60;;;19.80;66.90;;;;;;1477986;40;20029;-58
2021/06/07 02:23:11;;;;;;;9.52;7.63;;;19.80;66.90;;;;;;1481329;40;20086;-59
2021/06/07 02:24:31;;;;;;;8.27;7.47;;;19.80;66.90;;;;;;1480593;40;20323;-58
2021/06/07 02:25:53;;;;;;;8.75;7.90;;;19.80;66.80;;;;;;1480730;40;20044;-59
2021/06/07 02:27:14;;;;;;;9.98;7.45;;;19.80;66.90;;;;;;1479670;40;20281;-59
2021/06/07 02:28:36;;;;;;;9.65;8.57;;;19.80;66.90;;;;;;1481262;40;20037;-59
2021/06/07 02:29:57;;;;;;;9.18;8.13;;;19.80;66.90;;;;;;1482142;40;20055;-59
2021/06/07 02:31:19;;;;;;;9.40;7.78;;;19.80;66.80;;;;;;1481668;40;20029;-59
2021/06/07 02:32:41;;;;;;;8.77;7.32;;;19.80;66.80;;;;;;1481915;40;20036;-60
2021/06/07 02:34:05;;;;;;;9.07;8.15;;;19.80;66.80;;;;;;1481316;40;20039;-60
2021/06/07 02:35:26;;;;;;;9.00;8.10;;;19.70;66.80;;;;;;1480902;40;20028;-60
2021/06/07 02:36:47;;;;;;;8.60;7.70;;;19.70;66.80;;;;;;1479089;40;20033;-59
2021/06/07 02:38:09;;;;;;;10.05;8.65;;;19.80;66.90;;;;;;1479941;40;20294;-60
2021/06/07 02:39:30;;;;;;;10.23;8.68;;;19.70;66.90;;;;;;1478373;40;20362;-60
2021/06/07 02:40:51;;;;;;;9.93;8.82;;;19.70;66.90;;;;;;1480215;40;20021;-60
2021/06/07 02:42:13;;;;;;;9.45;8.38;;;19.70;66.90;;;;;;1479861;40;20033;-60
2021/06/07 02:43:34;;;;;;;10.10;9.05;;;19.80;66.90;;;;;;1480404;40;20031;-60
2021/06/07 02:44:55;;;;;;;9.38;8.43;;;19.70;66.90;;;;;;1480369;40;20078;-59
2021/06/07 02:46:18;;;;;;;13.52;8.88;;;19.70;66.90;;;;;;1480369;40;20023;-59
2021/06/07 02:47:41;;;;;;;9.57;8.63;;;19.70;66.90;;;;;;1481547;40;20037;-60
2021/06/07 02:49:02;;;;;;;9.70;8.70;;;19.70;67.10;;;;;;1480000;40;20033;-60
2021/06/07 02:50:27;;;;;;;10.48;9.43;;;19.70;67.00;;;;;;1479682;40;20100;-59
2021/06/07 02:51:48;;;;;;;9.90;8.90;;;19.70;67.10;;;;;;1481220;40;20039;-60
2021/06/07 02:53:09;;;;;;;11.82;9.05;;;19.70;67.10;;;;;;1481674;40;20044;-60
2021/06/07 02:54:30;;;;;;;11.25;10.05;;;19.70;67.10;;;;;;1478782;40;20033;-60
2021/06/07 02:55:53;;;;;;;10.77;9.48;;;19.70;67.10;;;;;;1482126;40;20029;-60
2021/06/07 02:57:14;;;;;;;10.45;9.23;;;19.70;67.10;;;;;;1479968;40;20424;-60
2021/06/07 02:58:34;;;;;;;10.98;9.63;;;19.60;67.00;;;;;;1479912;40;20348;-60
2021/06/07 02:59:56;;;;;;;13.35;9.52;;;19.60;67.00;;;;;;1477048;40;20029;-60
2021/06/07 03:01:17;;;;;;;11.00;9.90;;;19.60;67.10;;;;;;1480198;40;20056;-60
2021/06/07 03:02:38;;;;;;;12.18;10.00;;;19.60;67.10;;;;;;1478705;40;20059;-60
2021/06/07 03:04:01;;;;;;;10.45;9.35;;;19.60;67.10;;;;;;1480058;40;20163;-60
2021/06/07 03:05:22;;;;;;;10.77;9.68;;;19.60;67.10;;;;;;1481071;40;20094;-60
2021/06/07 03:06:43;;;;;;;12.10;9.18;;;19.60;67.10;;;;;;1479321;40;20032;-60
2021/06/07 03:08:05;;;;;;;11.52;9.70;;;19.60;67.20;;;;;;1479055;40;20033;-60
2021/06/07 03:09:26;;;;;;;12.32;9.82;;;19.60;67.20;;;;;;1481629;40;20025;-60
2021/06/07 03:10:51;;;;;;;11.30;9.63;;;19.60;67.20;;;;;;1480687;40;20041;-60
2021/06/07 03:12:12;;;;;;;10.75;9.65;;;19.60;67.20;;;;;;1480908;40;20032;-60
2021/06/07 03:13:33;;;;;;;10.43;9.40;;;19.60;67.20;;;;;;1480669;40;20056;-60
2021/06/07 03:14:54;;;;;;;10.88;9.75;;;19.60;67.20;;;;;;1481100;40;20275;-61
2021/06/07 03:16:15;;;;;;;11.07;9.77;;;19.50;67.10;;;;;;1480513;40;20281;-61
2021/06/07 03:17:37;;;;;;;12.40;10.30;;;19.50;67.20;;;;;;1481208;40;20375;-58
2021/06/07 03:18:57;;;;;;;11.18;9.98;;;19.50;67.10;;;;;;1482771;40;20347;-60
2021/06/07 03:20:26;;;;;;;12.25;10.20;;;19.50;67.80;;;;;;1481864;40;20036;-60
2021/06/07 03:21:47;;;;;;;12.45;10.13;;;19.50;67.20;;;;;;1478890;40;20041;-61
2021/06/07 03:23:15;;;;;;;11.85;9.65;;;19.50;67.10;;;;;;1481883;40;20080;-60
2021/06/07 03:24:36;;;;;;;11.18;9.93;;;19.50;67.20;;;;;;1482086;40;20114;-60
2021/06/07 03:25:58;;;;;;;12.18;10.27;;;19.50;67.20;;;;;;1483798;40;20044;-60
2021/06/07 03:27:19;;;;;;;11.07;9.98;;;19.50;67.20;;;;;;1480134;40;20033;-59
2021/06/07 03:28:40;;;;;;;11.55;10.23;;;19.50;67.30;;;;;;1481016;40;20036;-59
2021/06/07 03:30:01;;;;;;;11.32;10.20;;;19.40;67.20;;;;;;1479962;40;20033;-59
2021/06/07 03:31:23;;;;;;;11.57;10.30;;;19.40;67.20;;;;;;1481539;40;20082;-60
2021/06/07 03:32:44;;;;;;;12.20;10.80;;;19.40;67.40;;;;;;1481955;40;20034;-60
2021/06/07 03:34:05;;;;;;;12.95;10.13;;;19.40;67.40;;;;;;1481909;40;20033;-60
2021/06/07 03:35:26;;;;;;;11.23;10.05;;;19.40;67.50;;;;;;1480557;40;20029;-60
2021/06/07 03:36:47;;;;;;;11.68;10.25;;;19.40;67.50;;;;;;1480130;40;20040;-60
2021/06/07 03:38:09;;;;;;;11.70;10.50;;;19.40;67.50;;;;;;1480999;40;20039;-60
2021/06/07 03:39:30;;;;;;;10.95;9.60;;;19.40;67.40;;;;;;1481239;40;20029;-60
2021/06/07 03:40:53;;;;;;;11.38;10.18;;;19.40;67.40;;;;;;1481243;40;20075;-60
2021/06/07 03:42:14;;;;;;;12.57;10.23;;;19.40;67.40;;;;;;1480587;40;20581;-60
2021/06/07 03:43:37;;;;;;;11.70;10.30;;;19.40;67.40;;;;;;1478938;40;20562;-60
2021/06/07 03:44:58;;;;;;;11.38;10.20;;;19.40;67.50;;;;;;1482536;40;20039;-60
2021/06/07 03:46:19;;;;;;;12.57;10.70;;;19.40;67.40;;;;;;1482389;40;20102;-60
2021/06/07 03:47:40;;;;;;;13.20;11.05;;;19.40;67.30;;;;;;1482177;40;20077;-60
2021/06/07 03:49:01;;;;;;;10.45;9.35;;;19.40;67.40;;;;;;1481757;40;20036;-60
2021/06/07 03:50:25;;;;;;;12.05;9.75;;;19.40;67.30;;;;;;1481762;40;20713;-60
2021/06/07 03:51:46;;;;;;;12.35;9.52;;;19.30;67.30;;;;;;1483330;40;20040;-60
2021/06/07 03:53:08;;;;;;;11.40;10.15;;;19.30;67.20;;;;;;1480483;40;20041;-60
2021/06/07 03:54:29;;;;;;;11.65;9.52;;;19.30;67.30;;;;;;1477777;40;20029;-60
2021/06/07 03:55:51;;;;;;;11.98;10.20;;;19.30;67.30;;;;;;1480044;40;20025;-60
2021/06/07 03:57:11;;;;;;;11.60;9.82;;;19.30;67.30;;;;;;1480719;40;20025;-60
2021/06/07 03:58:32;;;;;;;10.73;9.73;;;19.30;67.30;;;;;;1480488;40;20290;-60
2021/06/07 03:59:53;;;;;;;10.50;9.43;;;19.30;67.30;;;;;;1480609;40;20025;-60
2021/06/07 04:01:14;;;;;;;11.02;9.82;;;19.30;67.30;;;;;;1481941;40;20041;-60
2021/06/07 04:02:35;;;;;;;11.82;9.90;;;19.20;67.30;;;;;;1480653;40;20344;-59
2021/06/07 04:03:56;;;;;;;12.02;10.75;;;19.20;67.30;;;;;;1481259;40;20073;-59
2021/06/07 04:05:18;;;;;;;11.68;10.20;;;19.20;67.40;;;;;;1481600;40;20021;-60
2021/06/07 04:06:39;;;;;;;15.63;10.93;;;19.30;67.40;;;;;;1474975;40;20167;-59
2021/06/07 04:08:00;;;;;;;11.48;10.05;;;19.20;67.30;;;;;;1481113;40;20040;-59
2021/06/07 04:09:22;;;;;;;10.52;9.43;;;19.20;67.30;;;;;;1481008;40;20021;-59
2021/06/07 04:10:46;;;;;;;11.23;9.98;;;19.20;67.30;;;;;;1472835;40;20025;-59
2021/06/07 04:12:07;;;;;;;9.63;8.63;;;19.20;67.30;;;;;;1477104;40;20044;-60
2021/06/07 04:13:28;;;;;;;11.35;9.93;;;19.20;67.30;;;;;;1478792;40;20202;-59
2021/06/07 04:14:49;;;;;;;11.10;9.80;;;19.20;67.30;;;;;;1483033;40;20040;-59
2021/06/07 04:16:10;;;;;;;11.32;10.13;;;19.20;67.30;;;;;;1481225;40;20033;-59
2021/06/07 04:17:31;;;;;;;11.60;9.95;;;19.20;67.30;;;;;;1479194;40;20025;-59
2021/06/07 04:18:52;;;;;;;11.40;9.70;;;19.20;67.30;;;;;;1482001;40;20616;-59
2021/06/07 04:20:15;;;;;;;11.35;9.82;;;19.10;67.30;;;;;;1477272;40;20453;-59
2021/06/07 04:21:40;;;;;;;12.32;9.60;;;19.10;67.40;;;;;;1477414;40;20175;-59
2021/06/07 04:23:02;;;;;;;10.35;9.25;;;19.10;67.40;;;;;;1481279;40;20025;-59
2021/06/07 04:24:23;;;;;;;12.10;9.05;;;19.10;67.40;;;;;;1480703;40;20032;-59
2021/06/07 04:25:44;;;;;;;10.68;9.57;;;19.10;67.50;;;;;;1481603;40;20060;-59
2021/06/07 04:27:06;;;;;;;10.05;9.05;;;19.10;67.50;;;;;;1479719;40;20045;-59
2021/06/07 04:28:27;;;;;;;13.13;9.93;;;19.00;67.50;;;;;;1481219;40;20029;-59
2021/06/07 04:29:48;;;;;;;12.18;9.75;;;19.00;67.60;;;;;;1478742;40;20040;-59
2021/06/07 04:31:09;;;;;;;10.00;8.98;;;19.00;67.60;;;;;;1481352;40;20092;-59
2021/06/07 04:32:31;;;;;;;10.60;9.50;;;19.00;67.70;;;;;;1478743;40;20471;-59
2021/06/07 04:33:52;;;;;;;10.73;9.27;;;19.00;67.80;;;;;;1481377;40;20021;-59
2021/06/07 04:35:14;;;;;;;11.10;9.05;;;19.00;67.80;;;;;;1478355;40;20041;-59
2021/06/07 04:36:35;;;;;;;11.70;9.38;;;19.00;67.70;;;;;;1479713;40;20032;-60
2021/06/07 04:37:57;;;;;;;10.25;9.05;;;18.90;67.70;;;;;;1481303;40;20044;-59
2021/06/07 04:39:18;;;;;;;9.32;8.43;;;18.90;67.70;;;;;;1481661;40;20113;-59
2021/06/07 04:40:40;;;;;;;11.40;8.70;;;18.90;67.70;;;;;;1481898;40;20041;-60
2021/06/07 04:42:01;;;;;;;9.70;8.55;;;18.90;67.80;;;;;;1480162;40;20037;-60
2021/06/07 04:43:22;;;;;;;11.25;9.32;;;18.90;67.90;;;;;;1482067;40;20025;-59
2021/06/07 04:44:42;;;;;;;9.40;8.27;;;18.90;67.90;;;;;;1480770;40;20055;-59
2021/06/07 04:46:03;;;;;;;10.05;9.00;;;18.90;67.90;;;;;;1479124;40;20094;-59
2021/06/07 04:47:24;;;;;;;9.82;8.75;;;18.90;68.00;;;;;;1480688;40;20037;-59
2021/06/07 04:48:45;;;;;;;10.80;9.10;;;18.90;68.00;;;;;;1481914;40;20403;-59
2021/06/07 04:50:08;;;;;;;10.60;9.45;;;18.90;68.10;;;;;;1480126;40;20033;-59
2021/06/07 04:51:28;;;;;;;9.45;8.48;;;18.90;68.10;;;;;;1480769;40;20044;-59
2021/06/07 04:52:59;;;;;;;10.65;9.55;;;18.90;68.20;;;;;;1479170;40;20138;-58
2021/06/07 04:54:20;;;;;;;9.50;8.50;;;18.90;68.20;;;;;;1481478;40;20078;-59
2021/06/07 04:55:44;;;;;;;9.93;8.88;;;18.90;68.10;;;;;;1479005;40;20036;-59
2021/06/07 04:57:06;;;;;;;9.65;8.65;;;18.80;68.10;;;;;;1479432;40;20308;-59
2021/06/07 04:58:29;;;;;;;10.27;8.32;;;18.80;68.10;;;;;;1481079;40;20040;-59
2021/06/07 04:59:50;;;;;;;10.40;9.13;;;18.80;68.10;;;;;;1481009;40;20513;-59
2021/06/07 05:01:16;;;;;;;9.88;8.73;;;18.80;68.10;;;;;;1480193;40;20040;-59
2021/06/07 05:02:37;;;;;;;10.88;9.05;;;18.80;68.10;;;;;;1479207;40;20069;-59
2021/06/07 05:03:58;;;;;;;12.25;9.02;;;18.80;68.20;;;;;;1479393;40;20073;-59
2021/06/07 05:05:20;;;;;;;10.38;8.65;;;18.80;68.20;;;;;;1480693;40;20055;-59
2021/06/07 05:06:41;;;;;;;11.30;9.57;;;18.80;68.30;;;;;;1472241;40;20029;-59
2021/06/07 05:08:02;;;;;;;10.90;9.40;;;18.80;68.40;;;;;;1479803;40;20031;-59
2021/06/07 05:09:23;;;;;;;12.63;9.80;;;18.70;68.40;;;;;;1479052;40;20037;-59
2021/06/07 05:10:44;;;;;;;11.25;9.35;;;18.70;68.60;;;;;;1482707;40;20387;-59
2021/06/07 05:12:05;;;;;;;12.07;9.95;;;18.70;68.60;;;;;;1479689;40;20033;-58
2021/06/07 05:13:27;;;;;;;11.82;9.68;;;18.70;68.80;;;;;;1480723;40;20614;-58
2021/06/07 05:14:48;;;;;;;11.88;10.05;;;18.70;68.80;;;;;;1481250;40;20044;-59
2021/06/07 05:16:10;;;;;;;12.57;9.75;;;18.70;68.90;;;;;;1480837;40;20053;-59
2021/06/07 05:17:31;;;;;;;12.63;10.55;;;18.70;69.00;;;;;;1479099;40;20057;-59
2021/06/07 05:18:52;;;;;;;12.52;10.65;;;18.70;69.00;;;;;;1479334;40;20037;-60
2021/06/07 05:20:16;;;;;;;15.15;10.82;;;18.70;69.10;;;;;;1480387;40;20031;-59
2021/06/07 05:21:37;;;;;;;11.98;10.68;;;18.70;69.20;;;;;;1480544;40;20036;-59
2021/06/07 05:22:59;;;;;;;12.38;10.40;;;18.70;69.10;;;;;;1481819;40;20045;-59
2021/06/07 05:24:19;;;;;;;12.48;10.70;;;18.70;69.30;;;;;;1479297;40;20036;-59
2021/06/07 05:25:42;;;;;;;13.35;10.73;;;18.70;69.40;;;;;;1479900;40;20041;-59
2021/06/07 05:27:04;;;;;;;13.10;10.65;;;18.70;69.50;;;;;;1478305;40;20574;-60
2021/06/07 05:28:24;;;;;;;13.80;10.90;;;18.70;69.40;;;;;;1480914;40;20037;-59
2021/06/07 05:29:45;;;;;;;16.13;10.43;;;18.80;69.50;;;;;;1480986;40;20068;-60
2021/06/07 05:31:06;;;;;;;11.73;10.48;;;18.80;69.50;;;;;;1480152;40;20047;-59
2021/06/07 05:32:28;;;;;;;13.30;11.27;;;18.80;69.60;;;;;;1481515;40;20060;-59
2021/06/07 05:33:48;;;;;;;12.13;10.38;;;18.70;69.60;;;;;;1481475;40;20068;-59
2021/06/07 05:35:12;;;;;;;14.30;11.48;;;18.80;69.70;;;;;;1480675;40;20043;-59
2021/06/07 05:36:33;;;;;;;13.93;11.43;;;18.80;69.80;;;;;;1479882;40;20037;-59
2021/06/07 05:37:54;;;;;;;12.80;10.82;;;18.80;69.80;;;;;;1480075;40;20444;-59
2021/06/07 05:39:19;;;;;;;14.95;11.13;;;18.80;69.90;;;;;;1479694;40;20040;-59
2021/06/07 05:40:41;;;;;;;13.07;11.75;;;18.80;69.90;;;;;;1479057;40;20048;-59
2021/06/07 05:42:02;;;;;;;12.82;9.68;;;18.80;69.90;;;;;;1480945;40;20037;-58
2021/06/07 05:43:23;;;;;;;14.85;11.32;;;18.90;69.90;;;;;;1481449;40;20040;-59
2021/06/07 05:44:44;;;;;;;18.08;12.77;;;18.80;69.80;;;;;;1478160;40;20502;-59
2021/06/07 05:46:05;;;;;;;15.70;11.40;;;18.80;69.80;;;;;;1475911;40;20041;-59
2021/06/07 05:47:26;;;;;;;14.13;12.00;;;18.90;69.90;;;;;;1479163;40;20511;-59
2021/06/07 05:48:47;;;;;;;15.40;11.73;;;18.90;69.90;;;;;;1479673;40;20041;-60
2021/06/07 05:50:11;;;;;;;14.70;12.05;;;18.90;69.90;;;;;;1478714;40;20251;-59
2021/06/07 05:51:33;;;;;;;19.05;12.40;;;18.90;70.10;;;;;;1479971;40;20346;-59
2021/06/07 05:52:54;;;;;;;18.33;13.18;;;18.90;70.00;;;;;;1482467;40;20017;-59
2021/06/07 05:54:15;;;;;;;18.60;13.85;;;18.90;70.00;;;;;;1477236;40;20593;-59
2021/06/07 05:55:42;;;;;;;20.73;15.40;;;19.00;70.10;;;;;;1478592;40;20036;-59
2021/06/07 05:57:04;;;;;;;24.88;15.90;;;19.00;70.10;;;;;;1480593;40;20640;-59
2021/06/07 05:58:25;;;;;;;25.80;16.92;;;19.00;70.10;;;;;;1479077;40;20095;-59
2021/06/07 05:59:46;;;;;;;25.23;18.02;;;19.00;70.10;;;;;;1481862;40;20036;-59
2021/06/07 06:01:07;;;;;;;24.27;17.42;;;19.10;70.10;;;;;;1478774;40;20032;-59
2021/06/07 06:02:28;;;;;;;22.95;16.25;;;19.10;70.20;;;;;;1479552;40;20029;-59
2021/06/07 06:03:49;;;;;;;20.60;14.75;;;19.10;70.20;;;;;;1481829;40;20033;-58
2021/06/07 06:05:11;;;;;;;17.02;12.65;;;19.10;70.10;;;;;;1481638;40;20044;-59
2021/06/07 06:06:32;;;;;;;15.88;12.65;;;19.10;70.10;;;;;;1479358;40;20126;-59
2021/06/07 06:07:53;;;;;;;17.52;13.77;;;19.20;69.90;;;;;;1479810;40;20344;-59
2021/06/07 06:09:14;;;;;;;17.70;13.90;;;19.20;69.80;;;;;;1478588;40;20021;-59
2021/06/07 06:10:37;;;;;;;22.77;16.30;;;19.20;69.70;;;;;;1479301;40;20351;-59
2021/06/07 06:11:58;;;;;;;19.67;15.13;;;19.20;69.70;;;;;;1479750;40;21054;-59
2021/06/07 06:13:19;;;;;;;20.70;15.25;;;19.20;69.60;;;;;;1479348;40;20358;-59
2021/06/07 06:14:40;;;;;;;17.83;14.63;;;19.20;69.50;;;;;;1480754;40;20041;-59
2021/06/07 06:16:01;;;;;;;15.77;12.85;;;19.30;69.50;;;;;;1478394;40;20045;-59
2021/06/07 06:17:22;;;;;;;15.13;12.82;;;19.30;69.30;;;;;;1480687;40;20053;-60
2021/06/07 06:18:43;;;;;;;12.48;11.18;;;19.30;69.10;;;;;;1474995;40;20122;-59
2021/06/07 06:20:05;;;;;;;14.82;11.20;;;19.30;69.00;;;;;;1478941;40;20349;-59
2021/06/07 06:21:27;;;;;;;15.32;11.80;;;19.30;68.90;;;;;;1481080;40;20029;-59
2021/06/07 06:22:48;;;;;;;17.35;11.77;;;19.30;68.90;;;;;;1482548;40;20419;-59
2021/06/07 06:24:11;;;;;;;14.23;11.85;;;19.40;68.90;;;;;;1480913;40;20427;-59
2021/06/07 06:25:32;;;;;;;14.05;11.25;;;19.40;68.80;;;;;;1479995;40;20029;-59
2021/06/07 06:26:52;;;;;;;14.77;12.30;;;19.30;68.60;;;;;;1479994;40;20036;-59
2021/06/07 06:28:13;;;;;;;16.77;13.23;;;19.40;68.60;;;;;;1480943;40;20040;-59
2021/06/07 06:29:36;;;;;;;17.55;13.80;;;19.40;68.50;;;;;;1479342;40;20053;-60
2021/06/07 06:30:57;;;;;;;18.25;14.23;;;19.40;68.40;;;;;;1479239;40;20053;-60
2021/06/07 06:32:18;;;;;;;15.00;13.00;;;19.40;68.50;;;;;;1482055;40;20043;-59
2021/06/07 06:33:39;;;;;;;15.88;12.90;;;19.40;68.50;;;;;;1481101;40;20118;-58
2021/06/07 06:35:00;;;;;;;12.82;11.38;;;19.40;68.50;;;;;;1481653;40;20037;-59
2021/06/07 06:36:21;;;;;;;19.15;11.98;;;19.40;68.50;;;;;;1476374;40;20398;-58
2021/06/07 06:37:44;;;;;;;13.77;11.80;;;19.40;68.60;;;;;;1480058;40;20037;-59
2021/06/07 06:39:06;;;;;;;15.35;12.52;;;19.40;68.60;;;;;;1482145;40;20121;-59
2021/06/07 06:40:30;;;;;;;14.95;12.40;;;19.40;68.60;;;;;;1481368;40;20021;-60
2021/06/07 06:41:51;;;;;;;14.73;11.80;;;19.40;68.50;;;;;;1478713;40;20044;-58
2021/06/07 06:43:12;;;;;;;16.27;13.13;;;19.50;68.50;;;;;;1478165;40;20045;-58
2021/06/07 06:44:33;;;;;;;21.67;15.05;;;19.50;68.40;;;;;;1479091;40;20025;-58
2021/06/07 06:45:54;;;;;;;22.30;16.48;;;19.50;68.30;;;;;;1479456;40;20041;-59
2021/06/07 06:47:15;;;;;;;21.42;15.77;;;19.50;68.20;;;;;;1481842;40;20102;-59
2021/06/07 06:48:36;;;;;;;20.52;15.75;;;19.50;68.10;;;;;;1481437;40;20036;-59
2021/06/07 06:49:57;;;;;;;18.70;14.18;;;19.50;68.20;;;;;;1481659;40;20284;-59
2021/06/07 06:51:18;;;;;;;20.02;14.95;;;19.50;68.30;;;;;;1480857;40;20040;-59
2021/06/07 06:52:40;;;;;;;22.13;14.75;;;19.50;68.30;;;;;;1479570;40;20069;-58
2021/06/07 06:54:01;;;;;;;20.17;15.35;;;19.50;68.20;;;;;;1480519;40;20072;-59
2021/06/07 06:55:22;;;;;;;22.38;16.10;;;19.60;68.40;;;;;;1476825;40;20048;-59
2021/06/07 06:56:43;;;;;;;20.42;14.38;;;19.60;68.50;;;;;;1477326;40;20029;-59
2021/06/07 06:58:04;;;;;;;23.83;15.73;;;19.60;68.30;;;;;;1481456;40;20028;-58
2021/06/07 06:59:25;;;;;;;18.85;15.65;;;19.60;68.00;;;;;;1481360;40;20056;-58
2021/06/07 07:00:47;;;;;;;24.48;16.35;;;19.70;67.80;;;;;;1481240;40;20104;-58